sensor_id;sensor_type;location;lat;lon;timestamp;P1;durP1;ratioP1;P2;durP2;ratioP2
20449;SDS011;10384;51.940;8.432;2023-04-24T00:00:13;1.30;;;0.77;;
20449;SDS011;10384;51.940;8.432;2023-04-24T00:02:40;0.80;;;0.70;;
20449;SDS011;10384;51.940;8.432;2023-04-24T00:05:06;0.57;;;0.57;;
20449;SDS011;10384;51.940;8.432;2023-04-24T00:07:32;1.87;;;0.50;;
20449;SDS011;10384;51.940;8.432;2023-04-24T00:09:58;1.50;;;0.53;;
20449;SDS011;10384;51.940;8.432;2023-04-24T00:12:25;1.00;;;0.77;;
20449;SDS011;10384;51.940;8.432;2023-04-24T00:14:51;1.83;;;1.60;;
20449;SDS011;10384;51.940;8.432;2023-04-24T00:17:17;2.90;;;1.33;;
20449;SDS011;10384;51.940;8.432;2023-04-24T00:19:46;2.50;;;2.10;;
20449;SDS011;10384;51.940;8.432;2023-04-24T00:22:12;3.30;;;2.40;;
20449;SDS011;10384;51.940;8.432;2023-04-24T00:24:39;2.50;;;2.10;;
20449;SDS011;10384;51.940;8.432;2023-04-24T00:27:05;3.57;;;2.23;;
20449;SDS011;10384;51.940;8.432;2023-04-24T00:29:31;1.93;;;1.07;;
20449;SDS011;10384;51.940;8.432;2023-04-24T00:31:57;3.13;;;1.10;;
20449;SDS011;10384;51.940;8.432;2023-04-24T00:34:23;1.23;;;0.80;;
20449;SDS011;10384;51.940;8.432;2023-04-24T00:36:49;2.40;;;0.87;;
20449;SDS011;10384;51.940;8.432;2023-04-24T00:39:19;1.63;;;1.10;;
20449;SDS011;10384;51.940;8.432;2023-04-24T00:41:46;3.37;;;1.80;;
20449;SDS011;10384;51.940;8.432;2023-04-24T00:44:12;3.33;;;1.77;;
20449;SDS011;10384;51.940;8.432;2023-04-24T00:46:39;1.80;;;1.07;;
20449;SDS011;10384;51.940;8.432;2023-04-24T00:49:05;2.60;;;0.80;;
20449;SDS011;10384;51.940;8.432;2023-04-24T00:51:31;0.97;;;0.87;;
20449;SDS011;10384;51.940;8.432;2023-04-24T00:53:57;0.77;;;0.70;;
20449;SDS011;10384;51.940;8.432;2023-04-24T00:56:23;2.77;;;0.70;;
20449;SDS011;10384;51.940;8.432;2023-04-24T00:58:49;1.17;;;0.93;;
20449;SDS011;10384;51.940;8.432;2023-04-24T01:01:15;1.40;;;1.00;;
20449;SDS011;10384;51.940;8.432;2023-04-24T01:03:43;2.17;;;1.20;;
20449;SDS011;10384;51.940;8.432;2023-04-24T01:06:09;1.87;;;1.10;;
20449;SDS011;10384;51.940;8.432;2023-04-24T01:08:36;2.07;;;0.90;;
20449;SDS011;10384;51.940;8.432;2023-04-24T01:11:03;0.80;;;0.80;;
20449;SDS011;10384;51.940;8.432;2023-04-24T01:13:29;2.57;;;1.00;;
20449;SDS011;10384;51.940;8.432;2023-04-24T01:15:57;0.80;;;0.80;;
20449;SDS011;10384;51.940;8.432;2023-04-24T01:18:23;1.13;;;0.70;;
20449;SDS011;10384;51.940;8.432;2023-04-24T01:20:49;1.00;;;0.90;;
20449;SDS011;10384;51.940;8.432;2023-04-24T01:23:16;1.00;;;0.90;;
20449;SDS011;10384;51.940;8.432;2023-04-24T01:25:42;2.03;;;0.70;;
20449;SDS011;10384;51.940;8.432;2023-04-24T01:28:09;1.00;;;0.80;;
20449;SDS011;10384;51.940;8.432;2023-04-24T01:30:35;1.70;;;0.80;;
20449;SDS011;10384;51.940;8.432;2023-04-24T01:33:01;1.80;;;1.00;;
20449;SDS011;10384;51.940;8.432;2023-04-24T01:35:28;1.00;;;0.90;;
20449;SDS011;10384;51.940;8.432;2023-04-24T01:37:54;1.13;;;0.80;;
20449;SDS011;10384;51.940;8.432;2023-04-24T01:40:20;1.20;;;0.77;;
20449;SDS011;10384;51.940;8.432;2023-04-24T01:42:46;1.10;;;0.83;;
20449;SDS011;10384;51.940;8.432;2023-04-24T01:45:12;0.80;;;0.80;;
20449;SDS011;10384;51.940;8.432;2023-04-24T01:47:38;1.10;;;0.90;;
20449;SDS011;10384;51.940;8.432;2023-04-24T01:50:05;1.00;;;0.70;;
20449;SDS011;10384;51.940;8.432;2023-04-24T01:52:31;0.93;;;0.60;;
20449;SDS011;10384;51.940;8.432;2023-04-24T01:55:01;1.47;;;0.90;;
20449;SDS011;10384;51.940;8.432;2023-04-24T01:57:27;2.37;;;0.97;;
20449;SDS011;10384;51.940;8.432;2023-04-24T01:59:55;1.50;;;1.00;;
20449;SDS011;10384;51.940;8.432;2023-04-24T02:02:21;1.47;;;0.97;;
20449;SDS011;10384;51.940;8.432;2023-04-24T02:04:49;1.67;;;1.10;;
20449;SDS011;10384;51.940;8.432;2023-04-24T02:07:15;1.17;;;0.93;;
20449;SDS011;10384;51.940;8.432;2023-04-24T02:09:40;1.30;;;0.90;;
20449;SDS011;10384;51.940;8.432;2023-04-24T02:12:07;1.10;;;1.00;;
20449;SDS011;10384;51.940;8.432;2023-04-24T02:14:33;1.80;;;0.90;;
20449;SDS011;10384;51.940;8.432;2023-04-24T02:16:59;1.37;;;0.97;;
20449;SDS011;10384;51.940;8.432;2023-04-24T02:19:25;1.40;;;0.93;;
20449;SDS011;10384;51.940;8.432;2023-04-24T02:21:51;0.93;;;0.83;;
20449;SDS011;10384;51.940;8.432;2023-04-24T02:24:17;1.10;;;1.00;;
20449;SDS011;10384;51.940;8.432;2023-04-24T02:26:43;2.17;;;1.20;;
20449;SDS011;10384;51.940;8.432;2023-04-24T02:29:09;0.80;;;0.80;;
20449;SDS011;10384;51.940;8.432;2023-04-24T02:31:35;1.67;;;1.00;;
20449;SDS011;10384;51.940;8.432;2023-04-24T02:34:01;1.57;;;0.97;;
20449;SDS011;10384;51.940;8.432;2023-04-24T02:36:27;1.37;;;0.80;;
20449;SDS011;10384;51.940;8.432;2023-04-24T02:38:53;0.90;;;0.80;;
20449;SDS011;10384;51.940;8.432;2023-04-24T02:41:19;2.73;;;0.90;;
20449;SDS011;10384;51.940;8.432;2023-04-24T02:43:45;1.80;;;0.90;;
20449;SDS011;10384;51.940;8.432;2023-04-24T02:46:11;2.27;;;0.90;;
20449;SDS011;10384;51.940;8.432;2023-04-24T02:48:37;2.07;;;1.00;;
20449;SDS011;10384;51.940;8.432;2023-04-24T02:51:03;1.83;;;1.00;;
20449;SDS011;10384;51.940;8.432;2023-04-24T02:53:29;2.20;;;0.90;;
20449;SDS011;10384;51.940;8.432;2023-04-24T02:55:55;1.43;;;0.90;;
20449;SDS011;10384;51.940;8.432;2023-04-24T02:58:22;2.17;;;0.70;;
20449;SDS011;10384;51.940;8.432;2023-04-24T03:00:48;0.93;;;0.80;;
20449;SDS011;10384;51.940;8.432;2023-04-24T03:03:14;0.90;;;0.70;;
20449;SDS011;10384;51.940;8.432;2023-04-24T03:05:40;1.70;;;0.70;;
20449;SDS011;10384;51.940;8.432;2023-04-24T03:08:06;0.93;;;0.70;;
20449;SDS011;10384;51.940;8.432;2023-04-24T03:10:32;1.40;;;0.90;;
20449;SDS011;10384;51.940;8.432;2023-04-24T03:12:58;1.43;;;0.70;;
20449;SDS011;10384;51.940;8.432;2023-04-24T03:15:24;1.10;;;0.80;;
20449;SDS011;10384;51.940;8.432;2023-04-24T03:17:50;2.47;;;0.90;;
20449;SDS011;10384;51.940;8.432;2023-04-24T03:20:17;0.87;;;0.80;;
20449;SDS011;10384;51.940;8.432;2023-04-24T03:22:43;1.03;;;0.77;;
20449;SDS011;10384;51.940;8.432;2023-04-24T03:25:09;1.70;;;1.00;;
20449;SDS011;10384;51.940;8.432;2023-04-24T03:27:35;1.03;;;0.90;;
20449;SDS011;10384;51.940;8.432;2023-04-24T03:30:01;1.23;;;0.90;;
20449;SDS011;10384;51.940;8.432;2023-04-24T03:32:27;1.40;;;0.90;;
20449;SDS011;10384;51.940;8.432;2023-04-24T03:34:53;2.33;;;0.73;;
20449;SDS011;10384;51.940;8.432;2023-04-24T03:37:19;2.33;;;1.00;;
20449;SDS011;10384;51.940;8.432;2023-04-24T03:39:45;2.30;;;1.30;;
20449;SDS011;10384;51.940;8.432;2023-04-24T03:42:11;1.33;;;1.10;;
20449;SDS011;10384;51.940;8.432;2023-04-24T03:44:37;2.00;;;1.13;;
20449;SDS011;10384;51.940;8.432;2023-04-24T03:47:03;2.30;;;1.10;;
20449;SDS011;10384;51.940;8.432;2023-04-24T03:49:29;2.67;;;1.00;;
20449;SDS011;10384;51.940;8.432;2023-04-24T03:51:54;1.63;;;1.10;;
20449;SDS011;10384;51.940;8.432;2023-04-24T03:54:20;2.47;;;1.20;;
20449;SDS011;10384;51.940;8.432;2023-04-24T03:56:46;2.40;;;1.30;;
20449;SDS011;10384;51.940;8.432;2023-04-24T03:59:12;2.67;;;1.40;;
20449;SDS011;10384;51.940;8.432;2023-04-24T04:01:38;2.93;;;1.60;;
20449;SDS011;10384;51.940;8.432;2023-04-24T04:04:05;2.23;;;1.50;;
20449;SDS011;10384;51.940;8.432;2023-04-24T04:06:31;2.40;;;1.53;;
20449;SDS011;10384;51.940;8.432;2023-04-24T04:08:57;2.50;;;1.40;;
20449;SDS011;10384;51.940;8.432;2023-04-24T04:11:23;3.27;;;1.53;;
20449;SDS011;10384;51.940;8.432;2023-04-24T04:13:49;4.33;;;1.50;;
20449;SDS011;10384;51.940;8.432;2023-04-24T04:16:16;2.20;;;1.60;;
20449;SDS011;10384;51.940;8.432;2023-04-24T04:18:42;1.80;;;1.47;;
20449;SDS011;10384;51.940;8.432;2023-04-24T04:21:08;3.43;;;1.60;;
20449;SDS011;10384;51.940;8.432;2023-04-24T04:23:34;2.43;;;1.50;;
20449;SDS011;10384;51.940;8.432;2023-04-24T04:26:01;4.23;;;1.57;;
20449;SDS011;10384;51.940;8.432;2023-04-24T04:28:27;4.83;;;1.70;;
20449;SDS011;10384;51.940;8.432;2023-04-24T04:30:53;3.17;;;1.70;;
20449;SDS011;10384;51.940;8.432;2023-04-24T04:33:20;3.63;;;2.50;;
20449;SDS011;10384;51.940;8.432;2023-04-24T04:35:46;4.70;;;2.77;;
20449;SDS011;10384;51.940;8.432;2023-04-24T04:38:17;3.47;;;2.10;;
20449;SDS011;10384;51.940;8.432;2023-04-24T04:40:43;4.77;;;2.37;;
20449;SDS011;10384;51.940;8.432;2023-04-24T04:43:09;6.97;;;2.30;;
20449;SDS011;10384;51.940;8.432;2023-04-24T04:45:40;5.87;;;2.80;;
20449;SDS011;10384;51.940;8.432;2023-04-24T04:48:07;5.00;;;3.00;;
20449;SDS011;10384;51.940;8.432;2023-04-24T04:50:34;6.23;;;3.90;;
20449;SDS011;10384;51.940;8.432;2023-04-24T04:53:00;8.47;;;4.10;;
20449;SDS011;10384;51.940;8.432;2023-04-24T04:55:26;11.47;;;4.10;;
20449;SDS011;10384;51.940;8.432;2023-04-24T04:57:52;8.53;;;4.20;;
20449;SDS011;10384;51.940;8.432;2023-04-24T05:00:18;8.37;;;4.67;;
20449;SDS011;10384;51.940;8.432;2023-04-24T05:02:44;9.97;;;4.70;;
20449;SDS011;10384;51.940;8.432;2023-04-24T05:05:10;15.37;;;5.50;;
20449;SDS011;10384;51.940;8.432;2023-04-24T05:07:36;11.77;;;5.67;;
20449;SDS011;10384;51.940;8.432;2023-04-24T05:10:02;15.97;;;7.37;;
20449;SDS011;10384;51.940;8.432;2023-04-24T05:12:28;14.87;;;8.30;;
20449;SDS011;10384;51.940;8.432;2023-04-24T05:14:54;13.17;;;6.60;;
20449;SDS011;10384;51.940;8.432;2023-04-24T05:17:20;12.50;;;6.40;;
20449;SDS011;10384;51.940;8.432;2023-04-24T05:19:46;15.90;;;6.60;;
20449;SDS011;10384;51.940;8.432;2023-04-24T05:22:13;12.57;;;6.90;;
20449;SDS011;10384;51.940;8.432;2023-04-24T05:24:39;14.67;;;7.13;;
20449;SDS011;10384;51.940;8.432;2023-04-24T05:27:05;12.57;;;6.47;;
20449;SDS011;10384;51.940;8.432;2023-04-24T05:29:32;13.90;;;7.23;;
20449;SDS011;10384;51.940;8.432;2023-04-24T05:31:58;16.93;;;8.17;;
20449;SDS011;10384;51.940;8.432;2023-04-24T05:34:25;17.27;;;8.10;;
20449;SDS011;10384;51.940;8.432;2023-04-24T05:36:51;17.63;;;7.90;;
20449;SDS011;10384;51.940;8.432;2023-04-24T05:39:18;14.13;;;7.23;;
20449;SDS011;10384;51.940;8.432;2023-04-24T05:41:44;16.80;;;8.00;;
20449;SDS011;10384;51.940;8.432;2023-04-24T05:44:10;18.27;;;9.00;;
20449;SDS011;10384;51.940;8.432;2023-04-24T05:46:36;19.77;;;9.07;;
20449;SDS011;10384;51.940;8.432;2023-04-24T05:49:02;15.97;;;7.53;;
20449;SDS011;10384;51.940;8.432;2023-04-24T05:51:28;17.93;;;7.57;;
20449;SDS011;10384;51.940;8.432;2023-04-24T05:53:55;16.97;;;8.33;;
20449;SDS011;10384;51.940;8.432;2023-04-24T05:56:21;18.27;;;8.17;;
20449;SDS011;10384;51.940;8.432;2023-04-24T05:58:47;18.47;;;9.03;;
20449;SDS011;10384;51.940;8.432;2023-04-24T06:01:13;20.03;;;9.10;;
20449;SDS011;10384;51.940;8.432;2023-04-24T06:03:40;18.10;;;8.70;;
20449;SDS011;10384;51.940;8.432;2023-04-24T06:06:06;18.27;;;9.27;;
20449;SDS011;10384;51.940;8.432;2023-04-24T06:08:33;20.43;;;9.30;;
20449;SDS011;10384;51.940;8.432;2023-04-24T06:10:59;20.17;;;8.90;;
20449;SDS011;10384;51.940;8.432;2023-04-24T06:13:25;20.50;;;8.50;;
20449;SDS011;10384;51.940;8.432;2023-04-24T06:15:51;16.83;;;8.07;;
20449;SDS011;10384;51.940;8.432;2023-04-24T06:18:17;19.17;;;8.70;;
20449;SDS011;10384;51.940;8.432;2023-04-24T06:20:43;19.90;;;7.97;;
20449;SDS011;10384;51.940;8.432;2023-04-24T06:23:09;18.73;;;7.80;;
20449;SDS011;10384;51.940;8.432;2023-04-24T06:25:35;16.20;;;7.80;;
20449;SDS011;10384;51.940;8.432;2023-04-24T06:28:01;18.73;;;8.80;;
20449;SDS011;10384;51.940;8.432;2023-04-24T06:30:27;19.30;;;9.40;;
20449;SDS011;10384;51.940;8.432;2023-04-24T06:32:53;22.63;;;10.20;;
20449;SDS011;10384;51.940;8.432;2023-04-24T06:35:19;22.43;;;9.47;;
20449;SDS011;10384;51.940;8.432;2023-04-24T06:37:45;23.80;;;9.73;;
20449;SDS011;10384;51.940;8.432;2023-04-24T06:40:12;19.20;;;8.53;;
20449;SDS011;10384;51.940;8.432;2023-04-24T06:42:39;17.47;;;7.90;;
20449;SDS011;10384;51.940;8.432;2023-04-24T06:45:05;24.00;;;10.30;;
20449;SDS011;10384;51.940;8.432;2023-04-24T06:47:31;19.63;;;9.03;;
20449;SDS011;10384;51.940;8.432;2023-04-24T06:49:57;20.80;;;9.23;;
20449;SDS011;10384;51.940;8.432;2023-04-24T06:52:23;17.10;;;8.90;;
20449;SDS011;10384;51.940;8.432;2023-04-24T06:54:49;19.40;;;8.80;;
20449;SDS011;10384;51.940;8.432;2023-04-24T06:57:15;22.20;;;9.30;;
20449;SDS011;10384;51.940;8.432;2023-04-24T06:59:42;14.77;;;6.90;;
20449;SDS011;10384;51.940;8.432;2023-04-24T07:02:08;15.87;;;7.73;;
20449;SDS011;10384;51.940;8.432;2023-04-24T07:04:34;16.13;;;7.37;;
20449;SDS011;10384;51.940;8.432;2023-04-24T07:07:00;14.20;;;7.37;;
20449;SDS011;10384;51.940;8.432;2023-04-24T07:09:26;14.03;;;7.30;;
20449;SDS011;10384;51.940;8.432;2023-04-24T07:11:52;18.03;;;8.60;;
20449;SDS011;10384;51.940;8.432;2023-04-24T07:14:19;18.00;;;8.00;;
20449;SDS011;10384;51.940;8.432;2023-04-24T07:16:45;14.30;;;7.30;;
20449;SDS011;10384;51.940;8.432;2023-04-24T07:19:12;15.17;;;6.97;;
20449;SDS011;10384;51.940;8.432;2023-04-24T07:21:38;11.30;;;6.47;;
20449;SDS011;10384;51.940;8.432;2023-04-24T07:24:04;12.33;;;6.67;;
20449;SDS011;10384;51.940;8.432;2023-04-24T07:26:34;12.30;;;6.50;;
20449;SDS011;10384;51.940;8.432;2023-04-24T07:29:00;12.27;;;6.53;;
20449;SDS011;10384;51.940;8.432;2023-04-24T07:31:26;14.63;;;6.00;;
20449;SDS011;10384;51.940;8.432;2023-04-24T07:33:52;12.43;;;6.40;;
20449;SDS011;10384;51.940;8.432;2023-04-24T07:36:18;10.30;;;5.80;;
20449;SDS011;10384;51.940;8.432;2023-04-24T07:38:45;8.83;;;5.40;;
20449;SDS011;10384;51.940;8.432;2023-04-24T07:41:12;7.90;;;4.57;;
20449;SDS011;10384;51.940;8.432;2023-04-24T07:43:38;11.07;;;5.67;;
20449;SDS011;10384;51.940;8.432;2023-04-24T07:46:04;7.20;;;4.70;;
20449;SDS011;10384;51.940;8.432;2023-04-24T07:48:31;10.13;;;4.50;;
20449;SDS011;10384;51.940;8.432;2023-04-24T07:50:57;8.07;;;4.60;;
20449;SDS011;10384;51.940;8.432;2023-04-24T07:53:23;8.27;;;5.00;;
20449;SDS011;10384;51.940;8.432;2023-04-24T07:55:49;7.67;;;4.73;;
20449;SDS011;10384;51.940;8.432;2023-04-24T07:58:15;8.43;;;4.90;;
20449;SDS011;10384;51.940;8.432;2023-04-24T08:00:40;7.90;;;4.20;;
20449;SDS011;10384;51.940;8.432;2023-04-24T08:03:06;7.20;;;4.27;;
20449;SDS011;10384;51.940;8.432;2023-04-24T08:05:32;6.23;;;4.33;;
20449;SDS011;10384;51.940;8.432;2023-04-24T08:07:58;9.93;;;4.70;;
20449;SDS011;10384;51.940;8.432;2023-04-24T08:10:25;7.20;;;3.97;;
20449;SDS011;10384;51.940;8.432;2023-04-24T08:12:51;6.63;;;4.00;;
20449;SDS011;10384;51.940;8.432;2023-04-24T08:15:17;7.00;;;4.73;;
20449;SDS011;10384;51.940;8.432;2023-04-24T08:17:43;6.03;;;3.53;;
20449;SDS011;10384;51.940;8.432;2023-04-24T08:20:09;7.47;;;4.70;;
20449;SDS011;10384;51.940;8.432;2023-04-24T08:22:38;7.43;;;4.60;;
20449;SDS011;10384;51.940;8.432;2023-04-24T08:25:05;6.43;;;4.50;;
20449;SDS011;10384;51.940;8.432;2023-04-24T08:27:31;5.53;;;3.47;;
20449;SDS011;10384;51.940;8.432;2023-04-24T08:29:57;8.77;;;4.60;;
20449;SDS011;10384;51.940;8.432;2023-04-24T08:32:26;7.03;;;4.20;;
20449;SDS011;10384;51.940;8.432;2023-04-24T08:34:56;8.77;;;4.43;;
20449;SDS011;10384;51.940;8.432;2023-04-24T08:37:22;5.87;;;3.07;;
20449;SDS011;10384;51.940;8.432;2023-04-24T08:39:49;4.97;;;3.33;;
20449;SDS011;10384;51.940;8.432;2023-04-24T08:42:15;5.23;;;3.37;;
20449;SDS011;10384;51.940;8.432;2023-04-24T08:44:41;5.87;;;3.33;;
20449;SDS011;10384;51.940;8.432;2023-04-24T08:47:07;8.43;;;3.90;;
20449;SDS011;10384;51.940;8.432;2023-04-24T08:49:33;4.07;;;2.47;;
20449;SDS011;10384;51.940;8.432;2023-04-24T08:52:01;3.90;;;2.43;;
20449;SDS011;10384;51.940;8.432;2023-04-24T08:54:28;4.10;;;2.53;;
20449;SDS011;10384;51.940;8.432;2023-04-24T08:56:56;3.27;;;2.10;;
20449;SDS011;10384;51.940;8.432;2023-04-24T08:59:25;6.80;;;2.80;;
20449;SDS011;10384;51.940;8.432;2023-04-24T09:01:51;4.30;;;2.17;;
20449;SDS011;10384;51.940;8.432;2023-04-24T09:04:18;2.47;;;1.73;;
20449;SDS011;10384;51.940;8.432;2023-04-24T09:06:47;4.80;;;2.53;;
20449;SDS011;10384;51.940;8.432;2023-04-24T09:09:13;5.07;;;2.77;;
20449;SDS011;10384;51.940;8.432;2023-04-24T09:11:39;4.00;;;2.63;;
20449;SDS011;10384;51.940;8.432;2023-04-24T09:14:05;4.80;;;2.53;;
20449;SDS011;10384;51.940;8.432;2023-04-24T09:16:32;2.73;;;1.83;;
20449;SDS011;10384;51.940;8.432;2023-04-24T09:18:58;3.10;;;2.07;;
20449;SDS011;10384;51.940;8.432;2023-04-24T09:21:25;4.87;;;2.83;;
20449;SDS011;10384;51.940;8.432;2023-04-24T09:23:58;6.63;;;3.77;;
20449;SDS011;10384;51.940;8.432;2023-04-24T09:26:24;3.20;;;1.90;;
20449;SDS011;10384;51.940;8.432;2023-04-24T09:28:51;4.17;;;2.43;;
20449;SDS011;10384;51.940;8.432;2023-04-24T09:31:19;3.57;;;2.43;;
20449;SDS011;10384;51.940;8.432;2023-04-24T09:33:56;9.90;;;4.43;;
20449;SDS011;10384;51.940;8.432;2023-04-24T09:36:29;5.73;;;3.00;;
20449;SDS011;10384;51.940;8.432;2023-04-24T09:38:58;8.13;;;3.50;;
20449;SDS011;10384;51.940;8.432;2023-04-24T09:41:25;6.03;;;3.40;;
20449;SDS011;10384;51.940;8.432;2023-04-24T09:43:53;4.00;;;2.27;;
20449;SDS011;10384;51.940;8.432;2023-04-24T09:46:19;6.20;;;3.50;;
20449;SDS011;10384;51.940;8.432;2023-04-24T09:48:47;5.17;;;3.03;;
20449;SDS011;10384;51.940;8.432;2023-04-24T09:51:13;4.67;;;2.90;;
20449;SDS011;10384;51.940;8.432;2023-04-24T09:53:44;4.33;;;2.30;;
20449;SDS011;10384;51.940;8.432;2023-04-24T09:56:11;7.33;;;3.70;;
20449;SDS011;10384;51.940;8.432;2023-04-24T09:58:38;5.10;;;2.23;;
20449;SDS011;10384;51.940;8.432;2023-04-24T10:01:04;4.60;;;2.10;;
20449;SDS011;10384;51.940;8.432;2023-04-24T10:03:30;8.97;;;3.90;;
20449;SDS011;10384;51.940;8.432;2023-04-24T10:06:00;7.20;;;3.53;;
20449;SDS011;10384;51.940;8.432;2023-04-24T10:08:26;3.57;;;1.93;;
20449;SDS011;10384;51.940;8.432;2023-04-24T10:10:52;6.03;;;2.50;;
20449;SDS011;10384;51.940;8.432;2023-04-24T10:13:18;6.50;;;3.03;;
20449;SDS011;10384;51.940;8.432;2023-04-24T10:15:44;2.87;;;2.00;;
20449;SDS011;10384;51.940;8.432;2023-04-24T10:18:11;2.13;;;1.30;;
20449;SDS011;10384;51.940;8.432;2023-04-24T10:20:38;1.30;;;1.20;;
20449;SDS011;10384;51.940;8.432;2023-04-24T10:23:04;1.57;;;1.47;;
20449;SDS011;10384;51.940;8.432;2023-04-24T10:25:31;3.77;;;1.80;;
20449;SDS011;10384;51.940;8.432;2023-04-24T10:27:58;2.67;;;1.70;;
20449;SDS011;10384;51.940;8.432;2023-04-24T10:30:43;3.43;;;2.20;;
20449;SDS011;10384;51.940;8.432;2023-04-24T10:33:09;2.63;;;2.17;;
20449;SDS011;10384;51.940;8.432;2023-04-24T10:35:37;2.17;;;1.80;;
20449;SDS011;10384;51.940;8.432;2023-04-24T10:38:14;3.63;;;1.80;;
20449;SDS011;10384;51.940;8.432;2023-04-24T10:40:41;3.37;;;2.07;;
20449;SDS011;10384;51.940;8.432;2023-04-24T10:43:08;4.93;;;2.50;;
20449;SDS011;10384;51.940;8.432;2023-04-24T10:45:36;3.03;;;1.80;;
20449;SDS011;10384;51.940;8.432;2023-04-24T10:48:03;3.20;;;2.00;;
20449;SDS011;10384;51.940;8.432;2023-04-24T10:50:47;6.20;;;3.60;;
20449;SDS011;10384;51.940;8.432;2023-04-24T10:53:17;5.27;;;2.63;;
20449;SDS011;10384;51.940;8.432;2023-04-24T10:58:09;4.73;;;2.73;;
20449;SDS011;10384;51.940;8.432;2023-04-24T11:00:37;9.53;;;4.50;;
20449;SDS011;10384;51.940;8.432;2023-04-24T11:03:50;15.37;;;7.00;;
20449;SDS011;10384;51.940;8.432;2023-04-24T11:08:22;8.57;;;3.30;;
20449;SDS011;10384;51.940;8.432;2023-04-24T11:10:58;7.40;;;3.67;;
20449;SDS011;10384;51.940;8.432;2023-04-24T11:13:25;7.43;;;3.73;;
20449;SDS011;10384;51.940;8.432;2023-04-24T11:16:12;3.37;;;1.90;;
20449;SDS011;10384;51.940;8.432;2023-04-24T11:18:38;3.10;;;2.10;;
20449;SDS011;10384;51.940;8.432;2023-04-24T11:21:16;2.73;;;1.97;;
20449;SDS011;10384;51.940;8.432;2023-04-24T11:23:42;2.40;;;2.00;;
20449;SDS011;10384;51.940;8.432;2023-04-24T11:26:12;3.23;;;2.07;;
20449;SDS011;10384;51.940;8.432;2023-04-24T11:28:48;4.30;;;2.23;;
20449;SDS011;10384;51.940;8.432;2023-04-24T11:34:09;3.57;;;2.23;;
20449;SDS011;10384;51.940;8.432;2023-04-24T11:36:36;4.63;;;2.10;;
20449;SDS011;10384;51.940;8.432;2023-04-24T11:39:02;3.73;;;2.40;;
20449;SDS011;10384;51.940;8.432;2023-04-24T11:41:28;3.20;;;2.60;;
20449;SDS011;10384;51.940;8.432;2023-04-24T11:43:55;3.43;;;2.37;;
20449;SDS011;10384;51.940;8.432;2023-04-24T11:46:21;3.20;;;2.30;;
20449;SDS011;10384;51.940;8.432;2023-04-24T11:48:47;4.87;;;2.47;;
20449;SDS011;10384;51.940;8.432;2023-04-24T11:51:13;4.80;;;2.80;;
20449;SDS011;10384;51.940;8.432;2023-04-24T11:53:39;4.40;;;2.63;;
20449;SDS011;10384;51.940;8.432;2023-04-24T11:56:06;5.30;;;2.80;;
20449;SDS011;10384;51.940;8.432;2023-04-24T11:58:35;7.83;;;3.27;;
20449;SDS011;10384;51.940;8.432;2023-04-24T12:01:01;4.93;;;2.53;;
20449;SDS011;10384;51.940;8.432;2023-04-24T12:03:27;4.33;;;2.20;;
20449;SDS011;10384;51.940;8.432;2023-04-24T12:06:04;4.87;;;2.30;;
20449;SDS011;10384;51.940;8.432;2023-04-24T12:08:31;3.67;;;2.20;;
20449;SDS011;10384;51.940;8.432;2023-04-24T12:10:57;3.10;;;1.73;;
20449;SDS011;10384;51.940;8.432;2023-04-24T12:13:25;2.67;;;1.63;;
20449;SDS011;10384;51.940;8.432;2023-04-24T12:15:51;3.37;;;1.40;;
20449;SDS011;10384;51.940;8.432;2023-04-24T12:18:17;2.50;;;1.60;;
20449;SDS011;10384;51.940;8.432;2023-04-24T12:20:43;2.77;;;1.43;;
20449;SDS011;10384;51.940;8.432;2023-04-24T12:23:09;4.60;;;1.73;;
20449;SDS011;10384;51.940;8.432;2023-04-24T12:25:35;5.27;;;1.90;;
20449;SDS011;10384;51.940;8.432;2023-04-24T12:30:31;3.30;;;1.97;;
20449;SDS011;10384;51.940;8.432;2023-04-24T12:32:58;5.47;;;2.20;;
20449;SDS011;10384;51.940;8.432;2023-04-24T12:35:25;5.77;;;2.00;;
20449;SDS011;10384;51.940;8.432;2023-04-24T12:37:51;4.13;;;2.33;;
20449;SDS011;10384;51.940;8.432;2023-04-24T12:40:18;4.27;;;2.13;;
20449;SDS011;10384;51.940;8.432;2023-04-24T12:42:46;7.67;;;2.50;;
20449;SDS011;10384;51.940;8.432;2023-04-24T12:45:12;6.83;;;2.53;;
20449;SDS011;10384;51.940;8.432;2023-04-24T12:47:38;5.40;;;2.63;;
20449;SDS011;10384;51.940;8.432;2023-04-24T12:50:05;5.37;;;2.93;;
20449;SDS011;10384;51.940;8.432;2023-04-24T12:52:31;7.03;;;3.10;;
20449;SDS011;10384;51.940;8.432;2023-04-24T12:54:58;6.13;;;2.60;;
20449;SDS011;10384;51.940;8.432;2023-04-24T12:57:25;5.43;;;3.23;;
20449;SDS011;10384;51.940;8.432;2023-04-24T12:59:54;5.77;;;2.30;;
20449;SDS011;10384;51.940;8.432;2023-04-24T13:02:21;7.53;;;2.60;;
20449;SDS011;10384;51.940;8.432;2023-04-24T13:04:47;5.67;;;2.30;;
20449;SDS011;10384;51.940;8.432;2023-04-24T13:07:13;4.90;;;2.30;;
20449;SDS011;10384;51.940;8.432;2023-04-24T13:09:40;6.13;;;2.40;;
20449;SDS011;10384;51.940;8.432;2023-04-24T13:12:07;4.97;;;2.57;;
20449;SDS011;10384;51.940;8.432;2023-04-24T13:14:33;5.43;;;2.50;;
20449;SDS011;10384;51.940;8.432;2023-04-24T13:16:59;6.53;;;3.13;;
20449;SDS011;10384;51.940;8.432;2023-04-24T13:19:25;9.33;;;3.33;;
20449;SDS011;10384;51.940;8.432;2023-04-24T13:21:52;7.50;;;3.00;;
20449;SDS011;10384;51.940;8.432;2023-04-24T13:24:18;7.50;;;3.23;;
20449;SDS011;10384;51.940;8.432;2023-04-24T13:26:45;8.77;;;4.10;;
20449;SDS011;10384;51.940;8.432;2023-04-24T13:29:11;7.53;;;4.20;;
20449;SDS011;10384;51.940;8.432;2023-04-24T13:31:37;9.13;;;3.63;;
20449;SDS011;10384;51.940;8.432;2023-04-24T13:34:02;7.30;;;3.83;;
20449;SDS011;10384;51.940;8.432;2023-04-24T13:36:29;10.27;;;5.03;;
20449;SDS011;10384;51.940;8.432;2023-04-24T13:38:56;9.13;;;3.67;;
20449;SDS011;10384;51.940;8.432;2023-04-24T13:41:22;11.20;;;3.67;;
20449;SDS011;10384;51.940;8.432;2023-04-24T13:43:48;8.97;;;4.43;;
20449;SDS011;10384;51.940;8.432;2023-04-24T13:46:14;13.70;;;4.40;;
20449;SDS011;10384;51.940;8.432;2023-04-24T13:48:40;9.23;;;4.07;;
20449;SDS011;10384;51.940;8.432;2023-04-24T13:51:06;7.90;;;3.93;;
20449;SDS011;10384;51.940;8.432;2023-04-24T13:53:32;7.90;;;3.77;;
20449;SDS011;10384;51.940;8.432;2023-04-24T13:56:01;12.83;;;4.70;;
20449;SDS011;10384;51.940;8.432;2023-04-24T13:58:27;10.00;;;4.10;;
20449;SDS011;10384;51.940;8.432;2023-04-24T14:00:53;10.80;;;4.00;;
20449;SDS011;10384;51.940;8.432;2023-04-24T14:03:19;11.33;;;4.53;;
20449;SDS011;10384;51.940;8.432;2023-04-24T14:05:45;7.90;;;3.83;;
20449;SDS011;10384;51.940;8.432;2023-04-24T14:08:11;13.00;;;4.30;;
20449;SDS011;10384;51.940;8.432;2023-04-24T14:10:37;7.27;;;3.90;;
20449;SDS011;10384;51.940;8.432;2023-04-24T14:13:03;10.53;;;4.10;;
20449;SDS011;10384;51.940;8.432;2023-04-24T14:15:29;11.97;;;4.00;;
20449;SDS011;10384;51.940;8.432;2023-04-24T14:17:55;10.20;;;3.80;;
20449;SDS011;10384;51.940;8.432;2023-04-24T14:20:21;10.00;;;3.93;;
20449;SDS011;10384;51.940;8.432;2023-04-24T14:22:47;8.53;;;3.47;;
20449;SDS011;10384;51.940;8.432;2023-04-24T14:25:13;10.60;;;3.83;;
20449;SDS011;10384;51.940;8.432;2023-04-24T14:27:40;13.77;;;4.30;;
20449;SDS011;10384;51.940;8.432;2023-04-24T14:30:06;10.27;;;3.70;;
20449;SDS011;10384;51.940;8.432;2023-04-24T14:32:33;8.50;;;4.10;;
20449;SDS011;10384;51.940;8.432;2023-04-24T14:35:00;9.43;;;3.53;;
20449;SDS011;10384;51.940;8.432;2023-04-24T14:37:26;10.30;;;3.80;;
20449;SDS011;10384;51.940;8.432;2023-04-24T14:39:52;11.90;;;3.60;;
20449;SDS011;10384;51.940;8.432;2023-04-24T14:42:18;8.17;;;3.40;;
20449;SDS011;10384;51.940;8.432;2023-04-24T14:44:44;9.00;;;3.30;;
20449;SDS011;10384;51.940;8.432;2023-04-24T14:47:10;10.73;;;3.53;;
20449;SDS011;10384;51.940;8.432;2023-04-24T14:49:36;8.57;;;3.00;;
20449;SDS011;10384;51.940;8.432;2023-04-24T14:52:02;5.23;;;2.87;;